Johnny James — WYT8450 — position and weather

sailwx.info

Track history (hours):
 
Tides and Currents Weather Stations Pressure Air Temp Water Temp Dewpoint Dewpoint Depression Visibility Wind Speed Wind Dir Waves Ship Positions

Johnny James

Owner: CALLAIS & SONS INC, CUT OFF, LA. More information available from US FCC via Universal Licensing System and Coast Guard Vessel Documentation Center.

Last reported at 2017-Jan-11 18:13 UTC. Time now 2017-Jan-19 19:21 UTC.
Position N 29°28' W 094°51'.
Warning: this ship's position is 8 days out of date.

Length 20 m.

Type: SAR. MMSI: 367005220.

Date/timePositionNaut miles runAvg speedWind from/ knotsBaromVisibWave heightAir tempDewpointWater temp
2017-Jan-11 18:13N 29°28' W 094°51'5 5.9
2017-Jan-11 17:25N 29°32' W 094°54'5 6.0
2017-Jan-11 16:34N 29°37' W 094°57'5 5.3
2017-Jan-11 15:34N 29°42' W 094°59'5 5.5
2017-Jan-11 14:34N 29°45' W 095°04'1 0.1
2017-Jan-10 23:17N 29°46' W 095°05'1 0.3
2017-Jan-10 21:32N 29°45' W 095°06'1 1.1
2017-Jan-10 20:32N 29°46' W 095°04'1 1.1
2017-Jan-10 19:34N 29°45' W 095°06'0 0.0
2017-Jan-10 18:33N 29°45' W 095°06'1 0.5
2017-Jan-10 17:33N 29°45' W 095°06'1 0.8
2017-Jan-10 16:19N 29°46' W 095°05'1 1.7
2017-Jan-10 15:33N 29°45' W 095°06'1 1.2
2017-Jan-10 14:33N 29°46' W 095°05'1 0.1
2017-Jan-10 04:07N 29°45' W 095°06'1 0.1
2017-Jan-09 17:16N 29°45' W 095°06'1 1.2
2017-Jan-09 16:33N 29°45' W 095°06'0 0.3
2017-Jan-09 15:33N 29°45' W 095°06'1 0.9
2017-Jan-09 14:33N 29°46' W 095°06'0 0.0
2017-Jan-09 13:33N 29°46' W 095°06'0 0.0
2017-Jan-09 04:33N 29°46' W 095°06'0 0.0
2017-Jan-09 03:04N 29°46' W 095°06'0 0.0
2017-Jan-08 23:33N 29°46' W 095°06'0 0.0
2017-Jan-08 22:33N 29°46' W 095°06'0 0.0
2017-Jan-08 21:33N 29°46' W 095°06'1 0.8
2017-Jan-08 20:33N 29°45' W 095°06'1 0.7
2017-Jan-08 19:13N 29°46' W 095°06'0 0.0
2017-Jan-08 17:18N 29°46' W 095°06'0 0.0
2017-Jan-08 15:32N 29°46' W 095°06'2 2.5
2017-Jan-08 14:33N 29°44' W 095°03'1 0.6
2017-Jan-08 13:33N 29°45' W 095°04'2 1.8
2017-Jan-08 12:28N 29°45' W 095°06'0 0.0
2017-Jan-08 10:21N 29°45' W 095°06'0 0.0
2017-Jan-07 22:34N 29°45' W 095°06'0 0.0
2017-Jan-07 21:25N 29°45' W 095°06'0 0.0
2017-Jan-07 20:28N 29°45' W 095°06'0 0.0
2017-Jan-07 19:10N 29°45' W 095°06'0 0.0
2017-Jan-07 18:30N 29°45' W 095°06'0 0.0
2017-Jan-07 17:32N 29°45' W 095°06'0 0.4
2017-Jan-07 16:31N 29°46' W 095°06'0 0.0
2017-Jan-07 15:33N 29°46' W 095°06'0 0.0
2017-Jan-07 14:34N 29°46' W 095°06'1 0.1
2017-Jan-07 10:08N 29°45' W 095°06'0 0.4
2017-Jan-07 09:33N 29°46' W 095°06'0 0.0
2017-Jan-07 08:26N 29°45' W 095°06'0 0.0
2017-Jan-07 07:20N 29°45' W 095°06'0 0.0
2017-Jan-06 23:26N 29°46' W 095°06'0 0.0
2017-Jan-06 22:34N 29°46' W 095°06'0 0.0
2017-Jan-06 21:33N 29°46' W 095°06'0 0.1
2017-Jan-06 20:34N 29°45' W 095°06'0 0.1
2017-Jan-06 19:33N 29°46' W 095°06'0 0.1
2017-Jan-06 18:25N 29°45' W 095°06'0 0.0
2017-Jan-06 17:33N 29°45' W 095°06'0 0.1
2017-Jan-06 16:33N 29°45' W 095°06'1 0.5
2017-Jan-06 14:29N 29°46' W 095°07'1 1.1
2017-Jan-06 13:29N 29°45' W 095°06'1 0.0
2017-Jan-05 23:11N 29°45' W 095°06'1 0.9
2017-Jan-05 22:33N 29°45' W 095°06'1 0.8
2017-Jan-05 21:27N 29°46' W 095°07'2 2.8
2017-Jan-05 20:33N 29°47' W 095°04'0 0.0
2017-Jan-05 19:29N 29°47' W 095°04'0 0.0
2017-Jan-05 18:33N 29°47' W 095°04'0 0.0
2017-Jan-05 17:28N 29°47' W 095°04'1 0.8
2017-Jan-05 16:33N 29°47' W 095°05'1 1.5
2017-Jan-05 15:33N 29°45' W 095°06'0 0.0
2017-Jan-05 14:31N 29°45' W 095°06'0 0.1
2017-Jan-05 09:21N 29°46' W 095°06'1 0.3
2017-Jan-05 05:27N 29°45' W 095°06'0 0.0
2017-Jan-05 04:22N 29°45' W 095°06'1 0.7
2017-Jan-05 03:28N 29°45' W 095°06'0 0.0
2017-Jan-04 23:31N 29°45' W 095°06'0 0.0
2017-Jan-04 22:28N 29°45' W 095°06'0 0.0
2017-Jan-04 21:33N 29°45' W 095°06'2 1.5
2017-Jan-04 20:25N 29°47' W 095°05'2 1.0
2017-Jan-04 18:26N 29°46' W 095°07'0 0.0
2017-Jan-04 17:29N 29°46' W 095°07'0 0.0
2017-Jan-04 16:31N 29°46' W 095°07'0 0.0
2017-Jan-04 15:31N 29°46' W 095°07'1 0.6
2017-Jan-04 13:33N 29°46' W 095°05'1 0.7
2017-Jan-04 12:24N 29°46' W 095°04'0 0.0
2017-Jan-04 03:09N 29°46' W 095°04'0 0.0
2017-Jan-04 02:31N 29°46' W 095°04'1 0.4
2017-Jan-03 23:24N 29°45' W 095°06'0 0.0
2017-Jan-03 22:33N 29°46' W 095°06'0 0.0
2017-Jan-03 21:31N 29°45' W 095°06'0 0.1
2017-Jan-03 20:33N 29°46' W 095°06'0 0.0
2017-Jan-03 19:33N 29°46' W 095°06'0 0.0
2017-Jan-03 18:33N 29°46' W 095°06'0 0.0
2017-Jan-03 17:33N 29°46' W 095°06'0 0.0
2017-Jan-03 15:32N 29°45' W 095°06'1 0.6
2017-Jan-03 13:33N 29°46' W 095°04'0 0.0
2017-Jan-03 12:16N 29°46' W 095°04'0 0.0
2017-Jan-03 11:33N 29°46' W 095°04'0 0.0
2017-Jan-03 10:24N 29°46' W 095°04'0 0.0
2017-Jan-03 09:28N 29°46' W 095°04'0 0.0
2017-Jan-03 08:33N 29°46' W 095°04'0 0.0
2017-Jan-03 07:32N 29°46' W 095°04'0 0.0
2017-Jan-03 06:33N 29°46' W 095°04'0 0.0
2017-Jan-03 05:33N 29°46' W 095°04'0 0.0
2017-Jan-03 04:31N 29°46' W 095°04'1 0.3
2017-Jan-02 23:33N 29°45' W 095°06'0 0.0
2017-Jan-02 22:33N 29°45' W 095°06'0 0.1
2017-Jan-02 21:30N 29°45' W 095°06'0 0.3
2017-Jan-02 20:29N 29°46' W 095°06'0 0.0
2017-Jan-02 19:30N 29°46' W 095°06'0 0.0
2017-Jan-02 18:14N 29°46' W 095°06'0 0.4
2017-Jan-02 17:33N 29°46' W 095°06'0 0.0
2017-Jan-02 16:33N 29°46' W 095°06'1 0.9
2017-Jan-02 15:04N 29°46' W 095°04'0 0.0
2017-Jan-02 14:33N 29°46' W 095°04'0 0.0
2017-Jan-01 23:33N 29°46' W 095°04'0 0.0
2017-Jan-01 22:33N 29°46' W 095°04'0 0.0
2017-Jan-01 21:34N 29°46' W 095°04'0 0.0
2017-Jan-01 20:33N 29°46' W 095°04'0 0.0
2017-Jan-01 19:33N 29°46' W 095°04'0 0.0
2017-Jan-01 18:33N 29°46' W 095°04'  
Track history (hours):
 
Tides and Currents Weather Stations Pressure Air Temp Water Temp Dewpoint Dewpoint Depression Visibility Wind Speed Wind Dir Waves Ship Positions

Johnny James

Owner: CALLAIS & SONS INC, CUT OFF, LA. More information available from US FCC via Universal Licensing System and Coast Guard Vessel Documentation Center.

Last reported at 2017-Jan-11 18:13 UTC. Time now 2017-Jan-19 19:21 UTC.
Position N 29°28' W 094°51'.
Warning: this ship's position is 8 days out of date.

Length 20 m.

Type: SAR. MMSI: 367005220.

Date/timePositionNaut miles runAvg speedWind from/ knotsBaromVisibWave heightAir tempDewpointWater temp
2017-Jan-11 18:13N 29°28' W 094°51'5 5.9
2017-Jan-11 17:25N 29°32' W 094°54'5 6.0
2017-Jan-11 16:34N 29°37' W 094°57'5 5.3
2017-Jan-11 15:34N 29°42' W 094°59'5 5.5
2017-Jan-11 14:34N 29°45' W 095°04'1 0.1
2017-Jan-10 23:17N 29°46' W 095°05'1 0.3
2017-Jan-10 21:32N 29°45' W 095°06'1 1.1
2017-Jan-10 20:32N 29°46' W 095°04'1 1.1
2017-Jan-10 19:34N 29°45' W 095°06'0 0.0
2017-Jan-10 18:33N 29°45' W 095°06'1 0.5
2017-Jan-10 17:33N 29°45' W 095°06'1 0.8
2017-Jan-10 16:19N 29°46' W 095°05'1 1.7
2017-Jan-10 15:33N 29°45' W 095°06'1 1.2
2017-Jan-10 14:33N 29°46' W 095°05'1 0.1
2017-Jan-10 04:07N 29°45' W 095°06'1 0.1
2017-Jan-09 17:16N 29°45' W 095°06'1 1.2
2017-Jan-09 16:33N 29°45' W 095°06'0 0.3
2017-Jan-09 15:33N 29°45' W 095°06'1 0.9
2017-Jan-09 14:33N 29°46' W 095°06'0 0.0
2017-Jan-09 13:33N 29°46' W 095°06'0 0.0
2017-Jan-09 04:33N 29°46' W 095°06'0 0.0
2017-Jan-09 03:04N 29°46' W 095°06'0 0.0
2017-Jan-08 23:33N 29°46' W 095°06'0 0.0
2017-Jan-08 22:33N 29°46' W 095°06'0 0.0
2017-Jan-08 21:33N 29°46' W 095°06'1 0.8
2017-Jan-08 20:33N 29°45' W 095°06'1 0.7
2017-Jan-08 19:13N 29°46' W 095°06'0 0.0
2017-Jan-08 17:18N 29°46' W 095°06'0 0.0
2017-Jan-08 15:32N 29°46' W 095°06'2 2.5
2017-Jan-08 14:33N 29°44' W 095°03'1 0.6
2017-Jan-08 13:33N 29°45' W 095°04'2 1.8
2017-Jan-08 12:28N 29°45' W 095°06'0 0.0
2017-Jan-08 10:21N 29°45' W 095°06'0 0.0
2017-Jan-07 22:34N 29°45' W 095°06'0 0.0
2017-Jan-07 21:25N 29°45' W 095°06'0 0.0
2017-Jan-07 20:28N 29°45' W 095°06'0 0.0
2017-Jan-07 19:10N 29°45' W 095°06'0 0.0
2017-Jan-07 18:30N 29°45' W 095°06'0 0.0
2017-Jan-07 17:32N 29°45' W 095°06'0 0.4
2017-Jan-07 16:31N 29°46' W 095°06'0 0.0
2017-Jan-07 15:33N 29°46' W 095°06'0 0.0
2017-Jan-07 14:34N 29°46' W 095°06'1 0.1
2017-Jan-07 10:08N 29°45' W 095°06'0 0.4
2017-Jan-07 09:33N 29°46' W 095°06'0 0.0
2017-Jan-07 08:26N 29°45' W 095°06'0 0.0
2017-Jan-07 07:20N 29°45' W 095°06'0 0.0
2017-Jan-06 23:26N 29°46' W 095°06'0 0.0
2017-Jan-06 22:34N 29°46' W 095°06'0 0.0
2017-Jan-06 21:33N 29°46' W 095°06'0 0.1
2017-Jan-06 20:34N 29°45' W 095°06'0 0.1
2017-Jan-06 19:33N 29°46' W 095°06'0 0.1
2017-Jan-06 18:25N 29°45' W 095°06'0 0.0
2017-Jan-06 17:33N 29°45' W 095°06'0 0.1
2017-Jan-06 16:33N 29°45' W 095°06'1 0.5
2017-Jan-06 14:29N 29°46' W 095°07'1 1.1
2017-Jan-06 13:29N 29°45' W 095°06'1 0.0
2017-Jan-05 23:11N 29°45' W 095°06'1 0.9
2017-Jan-05 22:33N 29°45' W 095°06'1 0.8
2017-Jan-05 21:27N 29°46' W 095°07'2 2.8
2017-Jan-05 20:33N 29°47' W 095°04'0 0.0
2017-Jan-05 19:29N 29°47' W 095°04'0 0.0
2017-Jan-05 18:33N 29°47' W 095°04'0 0.0
2017-Jan-05 17:28N 29°47' W 095°04'1 0.8
2017-Jan-05 16:33N 29°47' W 095°05'1 1.5
2017-Jan-05 15:33N 29°45' W 095°06'0 0.0
2017-Jan-05 14:31N 29°45' W 095°06'0 0.1
2017-Jan-05 09:21N 29°46' W 095°06'1 0.3
2017-Jan-05 05:27N 29°45' W 095°06'0 0.0
2017-Jan-05 04:22N 29°45' W 095°06'1 0.7
2017-Jan-05 03:28N 29°45' W 095°06'0 0.0
2017-Jan-04 23:31N 29°45' W 095°06'0 0.0
2017-Jan-04 22:28N 29°45' W 095°06'0 0.0
2017-Jan-04 21:33N 29°45' W 095°06'2 1.5
2017-Jan-04 20:25N 29°47' W 095°05'2 1.0
2017-Jan-04 18:26N 29°46' W 095°07'0 0.0
2017-Jan-04 17:29N 29°46' W 095°07'0 0.0
2017-Jan-04 16:31N 29°46' W 095°07'0 0.0
2017-Jan-04 15:31N 29°46' W 095°07'1 0.6
2017-Jan-04 13:33N 29°46' W 095°05'1 0.7
2017-Jan-04 12:24N 29°46' W 095°04'0 0.0
2017-Jan-04 03:09N 29°46' W 095°04'0 0.0
2017-Jan-04 02:31N 29°46' W 095°04'1 0.4
2017-Jan-03 23:24N 29°45' W 095°06'0 0.0
2017-Jan-03 22:33N 29°46' W 095°06'0 0.0
2017-Jan-03 21:31N 29°45' W 095°06'0 0.1
2017-Jan-03 20:33N 29°46' W 095°06'0 0.0
2017-Jan-03 19:33N 29°46' W 095°06'0 0.0
2017-Jan-03 18:33N 29°46' W 095°06'0 0.0
2017-Jan-03 17:33N 29°46' W 095°06'0 0.0
2017-Jan-03 15:32N 29°45' W 095°06'1 0.6
2017-Jan-03 13:33N 29°46' W 095°04'0 0.0
2017-Jan-03 12:16N 29°46' W 095°04'0 0.0
2017-Jan-03 11:33N 29°46' W 095°04'0 0.0
2017-Jan-03 10:24N 29°46' W 095°04'0 0.0
2017-Jan-03 09:28N 29°46' W 095°04'0 0.0
2017-Jan-03 08:33N 29°46' W 095°04'0 0.0
2017-Jan-03 07:32N 29°46' W 095°04'0 0.0
2017-Jan-03 06:33N 29°46' W 095°04'0 0.0
2017-Jan-03 05:33N 29°46' W 095°04'0 0.0
2017-Jan-03 04:31N 29°46' W 095°04'1 0.3
2017-Jan-02 23:33N 29°45' W 095°06'0 0.0
2017-Jan-02 22:33N 29°45' W 095°06'0 0.1
2017-Jan-02 21:30N 29°45' W 095°06'0 0.3
2017-Jan-02 20:29N 29°46' W 095°06'0 0.0
2017-Jan-02 19:30N 29°46' W 095°06'0 0.0
2017-Jan-02 18:14N 29°46' W 095°06'0 0.4
2017-Jan-02 17:33N 29°46' W 095°06'0 0.0
2017-Jan-02 16:33N 29°46' W 095°06'1 0.9
2017-Jan-02 15:04N 29°46' W 095°04'0 0.0
2017-Jan-02 14:33N 29°46' W 095°04'0 0.0
2017-Jan-01 23:33N 29°46' W 095°04'0 0.0
2017-Jan-01 22:33N 29°46' W 095°04'0 0.0
2017-Jan-01 21:34N 29°46' W 095°04'0 0.0
2017-Jan-01 20:33N 29°46' W 095°04'0 0.0
2017-Jan-01 19:33N 29°46' W 095°04'0 0.0
2017-Jan-01 18:33N 29°46' W 095°04'  

Dump ship's entire track history